Time;durP1;ratioP1;P1;durP2;ratioP2;P2;SDS_P1;SDS_P2;PMS_P1;PMS_P2;Temp;Humidity;BMP_temperature;BMP_pressure;BME280_temperature;BME280_humidity;BME280_pressure;Samples;Min_cycle;Max_cycle;Signal;HPM_P1;HPM_P2
2023/08/24 00:01:02;;;;;;;6.93;2.80;;;;;;;;;;5022729;28;20609;-58
2023/08/24 00:03:28;;;;;;;5.57;2.67;;;;;;;;;;5020976;28;20418;-58
2023/08/24 00:05:53;;;;;;;5.33;2.60;;;;;;;;;;5020841;28;20420;-58
2023/08/24 00:08:18;;;;;;;7.40;3.13;;;;;;;;;;5021262;28;20923;-58
2023/08/24 00:10:46;;;;;;;6.07;2.60;;;;;;;;;;5022884;28;20889;-58
2023/08/24 00:13:11;;;;;;;6.80;2.80;;;;;;;;;;5018085;28;20437;-58
2023/08/24 00:15:37;;;;;;;6.47;2.73;;;;;;;;;;5023134;28;20482;-58
2023/08/24 00:18:02;;;;;;;6.63;2.60;;;;;;;;;;5022854;28;20461;-58
2023/08/24 00:20:28;;;;;;;6.50;2.57;;;;;;;;;;5019978;28;20399;-58
2023/08/24 00:22:53;;;;;;;7.73;2.90;;;;;;;;;;5020623;28;20448;-58
2023/08/24 00:25:19;;;;;;;4.93;2.47;;;;;;;;;;5022940;28;20396;-58
2023/08/24 00:27:44;;;;;;;7.07;2.80;;;;;;;;;;5021345;28;20498;-58
2023/08/24 00:30:10;;;;;;;5.80;2.70;;;;;;;;;;5019436;28;20418;-58
2023/08/24 00:32:35;;;;;;;6.87;2.80;;;;;;;;;;5022810;28;20408;-58
2023/08/24 00:35:01;;;;;;;6.90;2.90;;;;;;;;;;5022506;28;20882;-59
2023/08/24 00:37:28;;;;;;;6.50;3.13;;;;;;;;;;5017013;28;20670;-58
2023/08/24 00:39:53;;;;;;;6.73;2.70;;;;;;;;;;5022677;28;20414;-58
2023/08/24 00:42:18;;;;;;;6.63;2.90;;;;;;;;;;5024535;28;20402;-58
2023/08/24 00:44:43;;;;;;;7.82;3.10;;;;;;;;;;5013183;28;20405;-58
2023/08/24 00:47:09;;;;;;;7.60;3.58;;;;;;;;;;5018376;28;20481;-58
2023/08/24 00:49:34;;;;;;;8.10;3.92;;;;;;;;;;5025398;28;21018;-58
2023/08/24 00:52:00;;;;;;;8.43;4.13;;;;;;;;;;5025544;28;20431;-58
2023/08/24 00:54:25;;;;;;;6.60;3.80;;;;;;;;;;5023066;28;21335;-58
2023/08/24 00:56:50;;;;;;;4.87;3.07;;;;;;;;;;5025155;28;20423;-58
2023/08/24 00:59:15;;;;;;;5.40;3.00;;;;;;;;;;5026404;28;20873;-58
2023/08/24 01:01:41;;;;;;;8.13;3.60;;;;;;;;;;5025058;28;20430;-58
2023/08/24 01:04:07;;;;;;;6.63;3.33;;;;;;;;;;5022377;28;20394;-58
2023/08/24 01:06:32;;;;;;;8.70;4.53;;;;;;;;;;5025572;28;20980;-58
2023/08/24 01:08:58;;;;;;;7.83;4.03;;;;;;;;;;5026652;28;20403;-58
2023/08/24 01:11:28;;;;;;;9.20;5.20;;;;;;;;;;5019528;28;20489;-58
2023/08/24 01:13:57;;;;;;;9.93;5.10;;;;;;;;;;5025954;28;20890;-58
2023/08/24 01:16:27;;;;;;;8.73;4.70;;;;;;;;;;5024467;28;20398;-58
2023/08/24 01:18:53;;;;;;;9.05;4.90;;;;;;;;;;5022647;28;20407;-58
2023/08/24 01:21:19;;;;;;;8.90;5.40;;;;;;;;;;5010571;28;20423;-58
2023/08/24 01:23:45;;;;;;;8.40;4.80;;;;;;;;;;4989464;28;20440;-58
2023/08/24 01:26:12;;;;;;;8.00;4.32;;;;;;;;;;4999535;28;20458;-58
2023/08/24 01:28:38;;;;;;;10.57;5.47;;;;;;;;;;5001614;28;20897;-58
2023/08/24 01:31:04;;;;;;;8.83;5.40;;;;;;;;;;4992833;28;20421;-58
2023/08/24 01:33:29;;;;;;;8.02;4.72;;;;;;;;;;4990925;28;20406;-58
2023/08/24 01:35:54;;;;;;;9.27;5.07;;;;;;;;;;4993985;28;20399;-58
2023/08/24 01:38:20;;;;;;;9.37;5.77;;;;;;;;;;4988956;28;20394;-58
2023/08/24 01:41:04;;;;;;;8.97;5.10;;;;;;;;;;4982091;28;20411;-58
2023/08/24 01:43:30;;;;;;;8.05;4.65;;;;;;;;;;4983218;28;20921;-58
2023/08/24 01:45:56;;;;;;;9.07;5.00;;;;;;;;;;4991914;28;20411;-57
2023/08/24 01:48:21;;;;;;;8.77;5.37;;;;;;;;;;4995950;28;20395;-58
2023/08/24 01:50:46;;;;;;;9.80;5.70;;;;;;;;;;4989076;28;20449;-58
2023/08/24 01:53:12;;;;;;;10.30;5.37;;;;;;;;;;4992544;28;20821;-58
2023/08/24 01:55:37;;;;;;;8.80;5.20;;;;;;;;;;4981088;28;20418;-58
2023/08/24 01:58:02;;;;;;;10.97;5.23;;;;;;;;;;4989686;28;21222;-58
2023/08/24 02:00:28;;;;;;;8.07;5.22;;;;;;;;;;4990891;28;20418;-57
2023/08/24 02:02:53;;;;;;;8.77;5.37;;;;;;;;;;4986745;28;20410;-58
2023/08/24 02:05:18;;;;;;;9.00;5.40;;;;;;;;;;4981476;28;20411;-58
2023/08/24 02:07:44;;;;;;;10.80;5.80;;;;;;;;;;4983985;28;20964;-58
2023/08/24 02:10:09;;;;;;;11.33;5.77;;;;;;;;;;4992968;28;20442;-58
2023/08/24 02:12:34;;;;;;;9.13;5.80;;;;;;;;;;4990296;28;20411;-58
2023/08/24 02:15:00;;;;;;;10.83;6.40;;;;;;;;;;4989589;28;20418;-58
2023/08/24 02:17:26;;;;;;;9.07;4.90;;;;;;;;;;4993516;28;20410;-58
2023/08/24 02:19:52;;;;;;;7.63;4.87;;;;;;;;;;4993225;28;20417;-57
2023/08/24 02:22:17;;;;;;;9.63;5.47;;;;;;;;;;4990273;28;20438;-58
2023/08/24 02:24:42;;;;;;;8.30;5.27;;;;;;;;;;4985866;28;20794;-58
2023/08/24 02:27:08;;;;;;;9.60;5.20;;;;;;;;;;4987896;28;20886;-58
2023/08/24 02:29:34;;;;;;;10.80;5.20;;;;;;;;;;4982060;28;21867;-58
2023/08/24 02:31:59;;;;;;;7.38;4.70;;;;;;;;;;4988375;28;20411;-58
2023/08/24 02:34:24;;;;;;;8.05;4.18;;;;;;;;;;4992707;28;20405;-58
2023/08/24 02:36:49;;;;;;;9.90;5.53;;;;;;;;;;4992267;28;20407;-58
2023/08/24 02:39:15;;;;;;;9.43;5.38;;;;;;;;;;4990062;28;20417;-58
2023/08/24 02:41:40;;;;;;;10.80;5.90;;;;;;;;;;4993170;28;21278;-58
2023/08/24 02:44:05;;;;;;;9.57;5.38;;;;;;;;;;4994468;28;20431;-58
2023/08/24 02:46:30;;;;;;;10.70;5.63;;;;;;;;;;4986488;28;20527;-58
2023/08/24 02:48:56;;;;;;;8.82;5.18;;;;;;;;;;4982972;28;21209;-58
2023/08/24 02:51:22;;;;;;;9.97;5.50;;;;;;;;;;4985453;28;20401;-58
2023/08/24 02:53:47;;;;;;;10.57;5.40;;;;;;;;;;4986394;28;20421;-58
2023/08/24 02:56:12;;;;;;;8.10;5.40;;;;;;;;;;4989611;28;20828;-58
2023/08/24 02:58:37;;;;;;;9.37;5.70;;;;;;;;;;4994933;28;20442;-58
2023/08/24 03:01:06;;;;;;;9.93;5.90;;;;;;;;;;4990325;28;20425;-58
2023/08/24 03:03:32;;;;;;;9.30;5.60;;;;;;;;;;4989917;28;20408;-58
2023/08/24 03:05:58;;;;;;;8.70;5.20;;;;;;;;;;4992478;28;20417;-58
2023/08/24 03:08:23;;;;;;;10.77;6.25;;;;;;;;;;4990571;28;20723;-58
2023/08/24 03:10:49;;;;;;;11.07;6.27;;;;;;;;;;4981076;28;20402;-58
2023/08/24 03:13:14;;;;;;;9.03;6.23;;;;;;;;;;4981395;28;20422;-58
2023/08/24 03:15:39;;;;;;;12.53;6.93;;;;;;;;;;4986636;28;20825;-58
2023/08/24 03:18:05;;;;;;;11.33;7.63;;;;;;;;;;4988010;28;21020;-59
2023/08/24 03:20:30;;;;;;;13.82;7.10;;;;;;;;;;4988363;28;20489;-58
2023/08/24 03:22:56;;;;;;;12.43;7.15;;;;;;;;;;4990201;28;20830;-58
2023/08/24 03:25:21;;;;;;;12.02;7.05;;;;;;;;;;4990176;28;21123;-58
2023/08/24 03:27:47;;;;;;;11.50;7.47;;;;;;;;;;4989107;28;21443;-58
2023/08/24 03:30:12;;;;;;;9.07;6.27;;;;;;;;;;4990500;28;20414;-58
2023/08/24 03:32:39;;;;;;;11.55;6.82;;;;;;;;;;4986207;28;20414;-58
2023/08/24 03:35:04;;;;;;;10.18;6.97;;;;;;;;;;4980371;28;20399;-59
2023/08/24 03:37:30;;;;;;;11.23;6.87;;;;;;;;;;4981842;28;20952;-58
2023/08/24 03:39:55;;;;;;;12.50;7.30;;;;;;;;;;4991432;28;20418;-58
2023/08/24 03:42:20;;;;;;;12.33;7.60;;;;;;;;;;4987272;28;20486;-58
2023/08/24 03:44:45;;;;;;;11.27;7.40;;;;;;;;;;4988278;28;20429;-58
2023/08/24 03:47:11;;;;;;;10.13;7.60;;;;;;;;;;4989333;28;20407;-58
2023/08/24 03:49:37;;;;;;;12.48;8.82;;;;;;;;;;4994263;28;20490;-58
2023/08/24 03:52:02;;;;;;;12.50;8.15;;;;;;;;;;4987407;28;20408;-58
2023/08/24 03:54:28;;;;;;;11.75;8.43;;;;;;;;;;4985369;28;20408;-58
2023/08/24 03:56:54;;;;;;;10.43;7.13;;;;;;;;;;4983990;28;20414;-58
2023/08/24 03:59:19;;;;;;;11.27;7.33;;;;;;;;;;4979527;28;20440;-58
2023/08/24 04:01:45;;;;;;;11.93;7.30;;;;;;;;;;4983983;28;20407;-58
2023/08/24 04:04:10;;;;;;;10.82;7.95;;;;;;;;;;4992228;28;20407;-59
2023/08/24 04:06:36;;;;;;;12.17;8.20;;;;;;;;;;4987647;28;20407;-58
2023/08/24 04:09:01;;;;;;;11.20;7.03;;;;;;;;;;4987922;28;20894;-58
2023/08/24 04:11:26;;;;;;;10.65;7.20;;;;;;;;;;4989737;28;20399;-58
2023/08/24 04:13:52;;;;;;;11.93;7.65;;;;;;;;;;4990261;28;20403;-58
2023/08/24 04:16:17;;;;;;;13.68;8.63;;;;;;;;;;4987293;28;20501;-58
2023/08/24 04:18:43;;;;;;;11.23;7.67;;;;;;;;;;4981464;28;20411;-58
2023/08/24 04:21:08;;;;;;;11.13;8.40;;;;;;;;;;4985875;28;20419;-58
2023/08/24 04:23:33;;;;;;;12.97;8.43;;;;;;;;;;4982044;28;20500;-58
2023/08/24 04:25:59;;;;;;;12.47;8.27;;;;;;;;;;4989073;28;20865;-58
2023/08/24 04:28:24;;;;;;;10.43;8.20;;;;;;;;;;4990457;28;20387;-58
2023/08/24 04:30:51;;;;;;;10.27;7.63;;;;;;;;;;4989370;28;21342;-58
2023/08/24 04:33:16;;;;;;;13.20;8.68;;;;;;;;;;4987447;28;20443;-58
2023/08/24 04:35:42;;;;;;;12.23;8.20;;;;;;;;;;4987798;28;20410;-58
2023/08/24 04:38:09;;;;;;;13.33;8.23;;;;;;;;;;4991518;28;20490;-59
2023/08/24 04:40:55;;;;;;;16.77;9.02;;;;;;;;;;4981684;28;20406;-58
2023/08/24 04:43:21;;;;;;;20.40;8.93;;;;;;;;;;4980113;28;20468;-58
2023/08/24 04:45:47;;;;;;;13.23;8.45;;;;;;;;;;4983716;28;20406;-58
2023/08/24 04:48:13;;;;;;;12.98;8.90;;;;;;;;;;4991390;28;20414;-58
2023/08/24 04:50:38;;;;;;;12.67;8.80;;;;;;;;;;4987946;28;20415;-58
2023/08/24 04:53:03;;;;;;;16.73;8.73;;;;;;;;;;4986883;28;20437;-58
2023/08/24 04:55:29;;;;;;;13.80;9.00;;;;;;;;;;4991185;28;20805;-59
2023/08/24 04:57:54;;;;;;;11.50;9.00;;;;;;;;;;4988643;28;20461;-59
2023/08/24 05:00:19;;;;;;;12.07;8.10;;;;;;;;;;4987320;28;20418;-59
2023/08/24 05:02:45;;;;;;;11.50;7.93;;;;;;;;;;4987341;28;20410;-59
2023/08/24 05:05:10;;;;;;;12.27;8.73;;;;;;;;;;4982158;28;20516;-59
2023/08/24 05:07:36;;;;;;;10.05;7.65;;;;;;;;;;4978915;28;20401;-59
2023/08/24 05:10:03;;;;;;;12.38;8.50;;;;;;;;;;4988353;28;20423;-60
2023/08/24 05:12:29;;;;;;;11.43;7.50;;;;;;;;;;4990333;28;20484;-59
2023/08/24 05:14:54;;;;;;;10.93;8.25;;;;;;;;;;4987108;28;20411;-59
2023/08/24 05:17:21;;;;;;;12.67;7.90;;;;;;;;;;4988290;28;20385;-58
2023/08/24 05:19:46;;;;;;;12.70;7.43;;;;;;;;;;4990898;28;20741;-58
2023/08/24 05:22:11;;;;;;;10.87;7.30;;;;;;;;;;4986722;28;20418;-59
2023/08/24 05:24:37;;;;;;;11.80;7.77;;;;;;;;;;4984338;28;20408;-59
2023/08/24 05:27:02;;;;;;;11.47;7.00;;;;;;;;;;4983421;28;20589;-59
2023/08/24 05:29:27;;;;;;;9.90;6.93;;;;;;;;;;4982878;28;20848;-58
2023/08/24 05:31:52;;;;;;;12.87;7.00;;;;;;;;;;4982567;28;20407;-58
2023/08/24 05:34:18;;;;;;;11.23;7.10;;;;;;;;;;4988782;28;20411;-59
2023/08/24 05:36:43;;;;;;;11.18;7.18;;;;;;;;;;4992700;28;21081;-59
2023/08/24 05:39:10;;;;;;;11.50;7.13;;;;;;;;;;4990283;28;20414;-59
2023/08/24 05:41:36;;;;;;;13.30;7.17;;;;;;;;;;4990743;28;20943;-59
2023/08/24 05:44:02;;;;;;;14.02;7.15;;;;;;;;;;4993263;28;20411;-59
2023/08/24 05:46:27;;;;;;;9.97;6.47;;;;;;;;;;4991070;28;20450;-59
2023/08/24 05:48:53;;;;;;;9.40;6.40;;;;;;;;;;4991062;28;20779;-59
2023/08/24 05:51:18;;;;;;;9.82;6.55;;;;;;;;;;5013566;28;21003;-59
2023/08/24 05:53:44;;;;;;;9.05;6.53;;;;;;;;;;5013186;28;21851;-59
2023/08/24 05:56:09;;;;;;;11.13;6.78;;;;;;;;;;5017423;28;20426;-59
2023/08/24 05:58:34;;;;;;;10.90;6.70;;;;;;;;;;5024512;28;20414;-59
2023/08/24 06:00:59;;;;;;;9.20;6.67;;;;;;;;;;5021361;28;20961;-59
2023/08/24 06:03:25;;;;;;;10.10;6.40;;;;;;;;;;5025048;28;20412;-59
2023/08/24 06:05:50;;;;;;;11.43;6.30;;;;;;;;;;5024964;28;20766;-59
2023/08/24 06:08:16;;;;;;;9.00;6.47;;;;;;;;;;5020705;28;20903;-59
2023/08/24 06:10:41;;;;;;;9.60;6.43;;;;;;;;;;5024226;28;20399;-59
2023/08/24 06:13:06;;;;;;;10.17;6.63;;;;;;;;;;5010639;28;20778;-59
2023/08/24 06:15:32;;;;;;;9.10;6.80;;;;;;;;;;5020310;28;20809;-59
2023/08/24 06:17:59;;;;;;;9.15;6.47;;;;;;;;;;5022640;28;20550;-58
2023/08/24 06:20:24;;;;;;;11.57;6.77;;;;;;;;;;5023141;28;20467;-59
2023/08/24 06:22:50;;;;;;;9.30;6.80;;;;;;;;;;5015582;28;20433;-59
2023/08/24 06:25:15;;;;;;;9.30;6.75;;;;;;;;;;5018330;28;20407;-59
2023/08/24 06:27:40;;;;;;;11.63;7.13;;;;;;;;;;5024560;28;21017;-58
2023/08/24 06:30:06;;;;;;;10.37;7.20;;;;;;;;;;5006707;28;20935;-59
2023/08/24 06:32:31;;;;;;;10.67;7.07;;;;;;;;;;4993178;28;20964;-58
2023/08/24 06:34:57;;;;;;;10.63;7.30;;;;;;;;;;5019220;28;20427;-59
2023/08/24 06:37:22;;;;;;;9.77;7.27;;;;;;;;;;5024180;28;21373;-58
2023/08/24 06:39:47;;;;;;;12.17;7.10;;;;;;;;;;5025032;28;20397;-58
2023/08/24 06:42:13;;;;;;;11.60;7.00;;;;;;;;;;5017449;28;20415;-59
2023/08/24 06:44:38;;;;;;;10.23;7.30;;;;;;;;;;5019286;28;20410;-58
2023/08/24 06:47:03;;;;;;;12.83;7.57;;;;;;;;;;5023961;28;20466;-59
2023/08/24 06:49:28;;;;;;;10.73;7.13;;;;;;;;;;5018849;28;20401;-59
2023/08/24 06:51:54;;;;;;;11.33;7.50;;;;;;;;;;5017139;28;20424;-59
2023/08/24 06:54:19;;;;;;;12.70;7.80;;;;;;;;;;5015495;28;20411;-59
2023/08/24 06:56:44;;;;;;;13.40;8.50;;;;;;;;;;5012625;28;20403;-59
2023/08/24 06:59:12;;;;;;;10.40;7.60;;;;;;;;;;5016614;28;20450;-59
2023/08/24 07:01:38;;;;;;;10.00;7.55;;;;;;;;;;5013680;28;20945;-59
2023/08/24 07:04:03;;;;;;;12.07;8.27;;;;;;;;;;5023832;28;20403;-59
2023/08/24 07:06:28;;;;;;;13.43;9.40;;;;;;;;;;5020132;28;21564;-58
2023/08/24 07:08:54;;;;;;;11.77;8.07;;;;;;;;;;5022935;28;20412;-58
2023/08/24 07:11:20;;;;;;;10.43;8.50;;;;;;;;;;5020762;28;20407;-58
2023/08/24 07:13:46;;;;;;;13.45;8.63;;;;;;;;;;5022315;28;21033;-59
2023/08/24 07:16:11;;;;;;;14.73;8.70;;;;;;;;;;5020192;28;20410;-59
2023/08/24 07:18:36;;;;;;;11.30;7.90;;;;;;;;;;5023991;28;20403;-58
2023/08/24 07:21:01;;;;;;;13.30;8.32;;;;;;;;;;5024159;28;20550;-59
2023/08/24 07:23:27;;;;;;;10.48;8.40;;;;;;;;;;5016750;28;20920;-59
2023/08/24 07:25:52;;;;;;;10.23;7.43;;;;;;;;;;5006869;28;20511;-58
2023/08/24 07:28:17;;;;;;;11.40;7.32;;;;;;;;;;5023337;28;20518;-58
2023/08/24 07:30:43;;;;;;;11.15;7.38;;;;;;;;;;5020041;28;20527;-58
2023/08/24 07:33:08;;;;;;;11.02;7.50;;;;;;;;;;5021709;28;20413;-58
2023/08/24 07:35:33;;;;;;;9.68;8.00;;;;;;;;;;5023967;28;20473;-58
2023/08/24 07:37:59;;;;;;;9.00;7.50;;;;;;;;;;5021934;28;20559;-58
2023/08/24 07:40:26;;;;;;;11.90;8.10;;;;;;;;;;5019444;28;20412;-59
2023/08/24 07:42:53;;;;;;;11.10;8.20;;;;;;;;;;5023036;28;20440;-58
2023/08/24 07:45:18;;;;;;;11.63;7.68;;;;;;;;;;5014573;28;20401;-58
2023/08/24 07:47:43;;;;;;;10.63;7.83;;;;;;;;;;5018848;28;20407;-59
2023/08/24 07:50:09;;;;;;;10.53;7.43;;;;;;;;;;5022840;28;20418;-59
2023/08/24 07:52:34;;;;;;;11.17;7.97;;;;;;;;;;5023199;28;20439;-59
2023/08/24 07:55:03;;;;;;;11.77;7.60;;;;;;;;;;5020652;28;20412;-59
2023/08/24 07:57:28;;;;;;;10.05;8.05;;;;;;;;;;5020398;28;20410;-59
2023/08/24 07:59:53;;;;;;;10.50;7.50;;;;;;;;;;5021587;28;20411;-58
2023/08/24 08:02:19;;;;;;;12.65;8.23;;;;;;;;;;5022476;28;20555;-58
2023/08/24 08:04:44;;;;;;;12.50;8.65;;;;;;;;;;5018761;28;20905;-58
2023/08/24 08:07:09;;;;;;;11.13;8.50;;;;;;;;;;5021489;28;20482;-59
2023/08/24 08:09:36;;;;;;;13.48;8.40;;;;;;;;;;5022636;28;20423;-58
2023/08/24 08:12:01;;;;;;;12.65;8.40;;;;;;;;;;5019028;28;20817;-59
2023/08/24 08:14:26;;;;;;;11.75;7.93;;;;;;;;;;5020629;28;20403;-59
2023/08/24 08:16:52;;;;;;;12.07;7.93;;;;;;;;;;5023734;28;20535;-58
2023/08/24 08:19:19;;;;;;;10.80;7.80;;;;;;;;;;5020766;28;20399;-59
2023/08/24 08:21:44;;;;;;;12.77;8.10;;;;;;;;;;5019173;28;20447;-58
2023/08/24 08:24:10;;;;;;;10.60;7.60;;;;;;;;;;5022832;28;20422;-59
2023/08/24 08:26:36;;;;;;;10.30;7.23;;;;;;;;;;5021873;28;20912;-59
2023/08/24 08:29:01;;;;;;;11.80;7.97;;;;;;;;;;5017025;28;20415;-59
2023/08/24 08:31:26;;;;;;;12.33;8.30;;;;;;;;;;5022845;28;20901;-59
2023/08/24 08:33:52;;;;;;;10.40;8.00;;;;;;;;;;5022894;28;20424;-59
2023/08/24 08:36:17;;;;;;;12.87;8.10;;;;;;;;;;5019775;28;20906;-59
2023/08/24 08:38:42;;;;;;;11.57;8.40;;;;;;;;;;5021028;28;20416;-59
2023/08/24 08:41:08;;;;;;;12.30;8.53;;;;;;;;;;5022388;28;20458;-59
2023/08/24 08:43:33;;;;;;;12.38;8.75;;;;;;;;;;5019853;28;20403;-59
2023/08/24 08:45:59;;;;;;;11.90;8.90;;;;;;;;;;5018565;28;20418;-59
2023/08/24 08:48:24;;;;;;;13.73;8.90;;;;;;;;;;5021923;28;20401;-59
2023/08/24 08:50:50;;;;;;;13.13;8.60;;;;;;;;;;5023065;28;20395;-59
2023/08/24 08:53:15;;;;;;;13.53;9.00;;;;;;;;;;5018648;28;20412;-59
2023/08/24 08:55:41;;;;;;;14.63;9.00;;;;;;;;;;5021716;28;20407;-58
2023/08/24 08:58:06;;;;;;;11.93;8.43;;;;;;;;;;5022295;28;20434;-59
2023/08/24 09:00:31;;;;;;;12.77;8.37;;;;;;;;;;5017215;28;20523;-59
2023/08/24 09:02:57;;;;;;;14.60;9.10;;;;;;;;;;5015338;28;20414;-59
2023/08/24 09:05:25;;;;;;;14.43;9.10;;;;;;;;;;5021510;28;21755;-59
2023/08/24 09:07:51;;;;;;;13.93;8.93;;;;;;;;;;5023014;28;20398;-59
2023/08/24 09:10:16;;;;;;;12.05;8.55;;;;;;;;;;5017945;28;20466;-59
2023/08/24 09:12:41;;;;;;;12.05;8.82;;;;;;;;;;5018027;28;20437;-58
2023/08/24 09:15:07;;;;;;;12.40;8.40;;;;;;;;;;5025485;28;20411;-60
2023/08/24 09:17:33;;;;;;;12.18;8.50;;;;;;;;;;5022949;28;20422;-58
2023/08/24 09:19:59;;;;;;;13.90;8.30;;;;;;;;;;5025038;28;20407;-59
2023/08/24 09:22:24;;;;;;;14.63;8.82;;;;;;;;;;5025649;28;20417;-59
2023/08/24 09:24:50;;;;;;;17.23;9.10;;;;;;;;;;5024807;28;20395;-59
2023/08/24 09:27:16;;;;;;;14.85;8.85;;;;;;;;;;5022511;28;20455;-59
2023/08/24 09:29:41;;;;;;;11.82;8.20;;;;;;;;;;5025028;28;20919;-59
2023/08/24 09:32:08;;;;;;;13.10;8.10;;;;;;;;;;5025749;28;20856;-59
2023/08/24 09:34:33;;;;;;;13.70;8.60;;;;;;;;;;5021604;28;20403;-59
2023/08/24 09:36:59;;;;;;;13.30;8.13;;;;;;;;;;5025391;28;20461;-59
2023/08/24 09:39:24;;;;;;;16.30;8.50;;;;;;;;;;5025891;28;20760;-59
2023/08/24 09:41:50;;;;;;;12.23;8.17;;;;;;;;;;5023317;28;20423;-59
2023/08/24 09:44:16;;;;;;;12.35;8.00;;;;;;;;;;5022218;28;20426;-59
2023/08/24 09:46:42;;;;;;;13.35;8.48;;;;;;;;;;5025303;28;20772;-59
2023/08/24 09:49:08;;;;;;;13.23;8.50;;;;;;;;;;5025132;28;20407;-59
2023/08/24 09:51:33;;;;;;;13.77;8.35;;;;;;;;;;5020911;28;20427;-59
2023/08/24 09:53:59;;;;;;;12.25;7.40;;;;;;;;;;5025926;28;20403;-59
2023/08/24 09:56:25;;;;;;;12.47;7.50;;;;;;;;;;5024275;28;20886;-59
2023/08/24 09:58:51;;;;;;;12.48;7.20;;;;;;;;;;5021009;28;20434;-59
2023/08/24 10:01:16;;;;;;;13.43;7.20;;;;;;;;;;5021217;28;20806;-59
2023/08/24 10:03:42;;;;;;;13.37;7.20;;;;;;;;;;5024663;28;20425;-59
2023/08/24 10:06:07;;;;;;;12.70;7.50;;;;;;;;;;5020985;28;20387;-59
2023/08/24 10:08:34;;;;;;;13.53;7.47;;;;;;;;;;5021377;28;20475;-59
2023/08/24 10:10:59;;;;;;;13.80;7.13;;;;;;;;;;5024085;28;20437;-58
2023/08/24 10:13:34;;;;;;;12.03;7.57;;;;;;;;;;5024050;28;20857;-59
2023/08/24 10:15:59;;;;;;;13.80;7.72;;;;;;;;;;5020613;28;20407;-59
2023/08/24 10:18:26;;;;;;;11.67;7.50;;;;;;;;;;5024309;28;20398;-59
2023/08/24 10:20:51;;;;;;;11.65;7.50;;;;;;;;;;5024752;28;20419;-59
2023/08/24 10:23:16;;;;;;;12.67;7.50;;;;;;;;;;5021989;28;20409;-59
2023/08/24 10:25:42;;;;;;;13.30;7.40;;;;;;;;;;5021461;28;20407;-59
2023/08/24 10:28:07;;;;;;;12.17;7.10;;;;;;;;;;5024506;28;20423;-59
2023/08/24 10:30:33;;;;;;;11.93;7.87;;;;;;;;;;5024367;28;20401;-59
2023/08/24 10:32:59;;;;;;;10.07;7.40;;;;;;;;;;5018543;28;20915;-59
2023/08/24 10:35:25;;;;;;;14.03;7.67;;;;;;;;;;5023185;28;20453;-59
2023/08/24 10:37:52;;;;;;;11.05;6.93;;;;;;;;;;5024775;28;20969;-59
2023/08/24 10:40:30;;;;;;;11.50;6.85;;;;;;;;;;5020212;28;20410;-59
2023/08/24 10:42:55;;;;;;;11.63;6.15;;;;;;;;;;5022349;28;20526;-59
2023/08/24 10:45:22;;;;;;;10.40;6.03;;;;;;;;;;5022206;28;20866;-59
2023/08/24 10:47:48;;;;;;;11.37;6.23;;;;;;;;;;5023163;28;20419;-59
2023/08/24 10:50:13;;;;;;;9.27;6.13;;;;;;;;;;5018587;28;20444;-59
2023/08/24 10:52:39;;;;;;;14.20;6.10;;;;;;;;;;5024525;28;20414;-59
2023/08/24 10:55:05;;;;;;;10.87;5.80;;;;;;;;;;5022718;28;20897;-59
2023/08/24 10:57:37;;;;;;;9.80;4.93;;;;;;;;;;5020474;28;20426;-59
2023/08/24 11:00:06;;;;;;;10.88;6.43;;;;;;;;;;5022058;28;20411;-60
2023/08/24 11:02:41;;;;;;;9.63;6.13;;;;;;;;;;5023482;28;20447;-59
2023/08/24 11:05:08;;;;;;;8.75;5.68;;;;;;;;;;5023193;28;20434;-59
2023/08/24 11:07:34;;;;;;;9.88;5.28;;;;;;;;;;5019971;28;20424;-59
2023/08/24 11:09:59;;;;;;;12.47;6.10;;;;;;;;;;5023668;28;20405;-59
2023/08/24 11:12:24;;;;;;;11.07;5.63;;;;;;;;;;5021455;28;20484;-59
2023/08/24 11:14:54;;;;;;;11.30;5.57;;;;;;;;;;5018276;28;20419;-59
2023/08/24 11:17:20;;;;;;;9.70;5.50;;;;;;;;;;5021852;28;20395;-59
2023/08/24 11:19:49;;;;;;;11.32;5.47;;;;;;;;;;5024550;28;20415;-59
2023/08/24 11:22:16;;;;;;;9.27;4.40;;;;;;;;;;5022229;28;20524;-59
2023/08/24 11:24:41;;;;;;;8.52;4.13;;;;;;;;;;5019791;28;20910;-59
2023/08/24 11:27:07;;;;;;;9.20;3.87;;;;;;;;;;5023964;28;20410;-60
2023/08/24 11:29:33;;;;;;;8.30;3.70;;;;;;;;;;5018575;28;20466;-59
2023/08/24 11:31:58;;;;;;;8.90;3.77;;;;;;;;;;5019373;28;20415;-59
2023/08/24 11:34:24;;;;;;;8.70;3.90;;;;;;;;;;5022326;28;20829;-59
2023/08/24 11:36:49;;;;;;;8.57;3.90;;;;;;;;;;5023711;28;20848;-59
2023/08/24 11:39:15;;;;;;;11.77;4.35;;;;;;;;;;5020097;28;20399;-59
2023/08/24 11:41:40;;;;;;;12.10;3.80;;;;;;;;;;5021170;28;20420;-59
2023/08/24 11:44:06;;;;;;;12.57;4.00;;;;;;;;;;5016510;28;20410;-59
2023/08/24 11:46:31;;;;;;;8.87;3.90;;;;;;;;;;5022802;28;20383;-59
2023/08/24 11:48:57;;;;;;;7.20;3.57;;;;;;;;;;5018923;28;20431;-59
2023/08/24 11:51:22;;;;;;;8.95;3.70;;;;;;;;;;5005040;28;20431;-59
2023/08/24 11:53:48;;;;;;;8.80;3.90;;;;;;;;;;5023445;28;20912;-59
2023/08/24 11:56:13;;;;;;;10.40;3.97;;;;;;;;;;5019612;28;20418;-59
2023/08/24 11:58:39;;;;;;;8.75;3.60;;;;;;;;;;5021889;28;20543;-59
2023/08/24 12:01:05;;;;;;;10.77;4.10;;;;;;;;;;5014142;28;20430;-59
2023/08/24 12:03:32;;;;;;;8.77;4.30;;;;;;;;;;5020688;28;21369;-59
2023/08/24 12:06:00;;;;;;;9.50;4.63;;;;;;;;;;5018019;28;20468;-59
2023/08/24 12:08:25;;;;;;;8.25;4.93;;;;;;;;;;5023059;28;20957;-59
2023/08/24 12:10:50;;;;;;;11.07;4.63;;;;;;;;;;5021978;28;20482;-59
2023/08/24 12:13:15;;;;;;;7.33;3.83;;;;;;;;;;5016054;28;20949;-59
2023/08/24 12:15:41;;;;;;;8.60;4.75;;;;;;;;;;5021831;28;20727;-59
2023/08/24 12:18:06;;;;;;;6.93;4.63;;;;;;;;;;5024252;28;20485;-60
2023/08/24 12:20:32;;;;;;;10.50;5.93;;;;;;;;;;5029068;28;20422;-58
2023/08/24 12:22:57;;;;;;;10.93;7.10;;;;;;;;;;5019087;28;20769;-59
2023/08/24 12:25:23;;;;;;;9.33;5.50;;;;;;;;;;5005247;28;20470;-59
2023/08/24 12:27:49;;;;;;;11.20;6.70;;;;;;;;;;5023452;28;20770;-59
2023/08/24 12:30:14;;;;;;;13.45;6.40;;;;;;;;;;5018738;28;20406;-59
2023/08/24 12:32:44;;;;;;;11.38;6.10;;;;;;;;;;5021455;28;20418;-59
2023/08/24 12:35:09;;;;;;;13.02;5.82;;;;;;;;;;5022510;28;20498;-59
2023/08/24 12:37:35;;;;;;;11.50;4.80;;;;;;;;;;5020376;28;20426;-59
2023/08/24 12:40:01;;;;;;;11.40;5.68;;;;;;;;;;5011666;28;20427;-60
2023/08/24 12:42:27;;;;;;;13.57;6.97;;;;;;;;;;5022960;28;20403;-59
2023/08/24 12:44:52;;;;;;;13.05;6.93;;;;;;;;;;5020074;28;20467;-59
2023/08/24 12:47:18;;;;;;;12.40;7.13;;;;;;;;;;5021301;28;21028;-58
2023/08/24 12:49:43;;;;;;;12.33;6.87;;;;;;;;;;5026321;28;20414;-59
2023/08/24 12:52:08;;;;;;;12.60;6.40;;;;;;;;;;5026745;28;20921;-60
2023/08/24 12:54:34;;;;;;;10.83;6.13;;;;;;;;;;5023250;28;20403;-59
2023/08/24 12:56:59;;;;;;;10.30;6.27;;;;;;;;;;5025012;28;20999;-59
2023/08/24 12:59:24;;;;;;;9.10;5.20;;;;;;;;;;5026378;28;20420;-59
2023/08/24 13:01:50;;;;;;;10.47;4.80;;;;;;;;;;5023933;28;20419;-59
2023/08/24 13:04:15;;;;;;;7.93;4.20;;;;;;;;;;5021753;28;20403;-59
2023/08/24 13:06:40;;;;;;;13.90;3.90;;;;;;;;;;5026672;28;20407;-59
2023/08/24 13:09:06;;;;;;;9.27;3.72;;;;;;;;;;5025370;28;20727;-59
2023/08/24 13:11:31;;;;;;;9.60;4.30;;;;;;;;;;5021880;28;20405;-59
2023/08/24 13:13:57;;;;;;;11.83;4.33;;;;;;;;;;5025561;28;20435;-59
2023/08/24 13:16:22;;;;;;;8.30;4.60;;;;;;;;;;5024355;28;20387;-59
2023/08/24 13:18:47;;;;;;;10.33;5.07;;;;;;;;;;5024198;28;20532;-59
2023/08/24 13:21:13;;;;;;;11.03;5.80;;;;;;;;;;5022276;28;20759;-59
2023/08/24 13:23:38;;;;;;;15.10;5.80;;;;;;;;;;5025918;28;20420;-58
2023/08/24 13:26:03;;;;;;;11.00;5.90;;;;;;;;;;5025625;28;20901;-59
2023/08/24 13:28:29;;;;;;;13.73;6.23;;;;;;;;;;5021349;28;20395;-59
2023/08/24 13:30:54;;;;;;;10.70;5.60;;;;;;;;;;5016436;28;20477;-59
2023/08/24 13:33:20;;;;;;;10.60;4.83;;;;;;;;;;5001447;28;20876;-59
2023/08/24 13:35:45;;;;;;;10.83;5.43;;;;;;;;;;4990356;28;20422;-59
2023/08/24 13:38:11;;;;;;;8.67;4.63;;;;;;;;;;4993375;28;20836;-59
2023/08/24 13:40:36;;;;;;;8.47;4.50;;;;;;;;;;4992609;28;20904;-59
2023/08/24 13:43:01;;;;;;;9.07;4.13;;;;;;;;;;4998324;28;20809;-60
2023/08/24 13:45:26;;;;;;;7.40;4.33;;;;;;;;;;4998236;28;20818;-59
2023/08/24 13:47:52;;;;;;;7.13;4.00;;;;;;;;;;4995356;28;20801;-59
2023/08/24 13:50:17;;;;;;;9.30;4.20;;;;;;;;;;4993128;28;20488;-59
2023/08/24 13:52:42;;;;;;;8.47;4.43;;;;;;;;;;4997861;28;20513;-59
2023/08/24 13:55:08;;;;;;;8.70;4.50;;;;;;;;;;5001357;28;20635;-59
2023/08/24 13:57:33;;;;;;;8.60;4.83;;;;;;;;;;4985308;28;20620;-59
2023/08/24 13:59:59;;;;;;;11.30;5.20;;;;;;;;;;4991003;28;21036;-59
2023/08/24 14:02:25;;;;;;;11.35;5.43;;;;;;;;;;4991990;28;20409;-59
2023/08/24 14:04:50;;;;;;;10.38;5.00;;;;;;;;;;4993739;28;20780;-59
2023/08/24 14:07:16;;;;;;;9.13;4.83;;;;;;;;;;4995168;28;20509;-59
2023/08/24 14:09:41;;;;;;;9.93;5.13;;;;;;;;;;4996088;28;20412;-59
2023/08/24 14:12:06;;;;;;;9.03;5.03;;;;;;;;;;4993850;28;20442;-59
2023/08/24 14:14:32;;;;;;;10.03;4.90;;;;;;;;;;4995860;28;20446;-59
2023/08/24 14:16:57;;;;;;;10.53;4.93;;;;;;;;;;4999555;28;20403;-59
2023/08/24 14:19:23;;;;;;;9.43;5.13;;;;;;;;;;4987036;28;20403;-59
2023/08/24 14:21:48;;;;;;;9.83;5.40;;;;;;;;;;4986589;28;20484;-59
2023/08/24 14:24:13;;;;;;;7.90;5.13;;;;;;;;;;4988798;28;20415;-59
2023/08/24 14:26:45;;;;;;;11.83;5.40;;;;;;;;;;4993814;28;20422;-59